sensor_id;sensor_type;location;lat;lon;timestamp;pressure;altitude;pressure_sealevel;temperature;humidity
27958;BME280;15295;42.658;23.374;2022-09-09T00:04:32;94808.00;;;24.37;45.91
27958;BME280;15295;42.658;23.374;2022-09-09T00:07:52;94801.81;;;24.33;46.34
27958;BME280;15295;42.658;23.374;2022-09-09T00:10:30;94826.19;;;24.47;46.24
27958;BME280;15295;42.658;23.374;2022-09-09T00:19:02;94784.94;;;24.28;46.06
27958;BME280;15295;42.658;23.374;2022-09-09T00:21:35;94843.81;;;24.53;46.26
27958;BME280;15295;42.658;23.374;2022-09-09T00:24:12;94831.19;;;24.43;46.46
27958;BME280;15295;42.658;23.374;2022-09-09T00:26:53;94815.38;;;24.40;46.23
27958;BME280;15295;42.658;23.374;2022-09-09T00:29:53;94796.03;;;24.22;46.45
27958;BME280;15295;42.658;23.374;2022-09-09T00:32:19;94800.47;;;24.29;46.46
27958;BME280;15295;42.658;23.374;2022-09-09T00:35:00;94789.38;;;24.20;46.90
27958;BME280;15295;42.658;23.374;2022-09-09T00:37:28;94764.88;;;24.00;46.65
27958;BME280;15295;42.658;23.374;2022-09-09T00:39:59;94775.50;;;24.11;46.92
27958;BME280;15295;42.658;23.374;2022-09-09T00:48:08;94764.66;;;23.89;46.72
27958;BME280;15295;42.658;23.374;2022-09-09T00:50:57;94802.59;;;23.96;47.03
27958;BME280;15295;42.658;23.374;2022-09-09T00:54:00;94789.50;;;23.87;46.65
27958;BME280;15295;42.658;23.374;2022-09-09T00:57:13;94797.81;;;23.72;47.05
27958;BME280;15295;42.658;23.374;2022-09-09T00:59:56;94804.53;;;23.66;46.63
27958;BME280;15295;42.658;23.374;2022-09-09T01:11:25;94738.28;;;22.81;48.21
27958;BME280;15295;42.658;23.374;2022-09-09T01:16:43;94742.91;;;22.84;48.19
27958;BME280;15295;42.658;23.374;2022-09-09T01:19:14;94740.56;;;22.91;47.96
27958;BME280;15295;42.658;23.374;2022-09-09T01:27:54;94787.53;;;23.31;47.43
27958;BME280;15295;42.658;23.374;2022-09-09T01:30:24;94786.50;;;23.29;47.52
27958;BME280;15295;42.658;23.374;2022-09-09T01:32:57;94791.69;;;23.45;47.84
27958;BME280;15295;42.658;23.374;2022-09-09T01:36:37;94798.28;;;23.56;47.66
27958;BME280;15295;42.658;23.374;2022-09-09T01:38:38;94775.72;;;23.45;47.09
27958;BME280;15295;42.658;23.374;2022-09-09T01:41:07;94809.25;;;23.60;47.00
27958;BME280;15295;42.658;23.374;2022-09-09T01:43:35;94823.19;;;23.60;47.40
27958;BME280;15295;42.658;23.374;2022-09-09T01:46:10;94796.66;;;23.41;47.53
27958;BME280;15295;42.658;23.374;2022-09-09T01:48:41;94825.75;;;23.49;47.84
27958;BME280;15295;42.658;23.374;2022-09-09T01:51:09;94825.44;;;23.47;47.50
27958;BME280;15295;42.658;23.374;2022-09-09T01:53:38;94793.13;;;23.31;47.90
27958;BME280;15295;42.658;23.374;2022-09-09T02:02:21;94826.72;;;23.46;48.10
27958;BME280;15295;42.658;23.374;2022-09-09T02:05:01;94825.97;;;23.36;47.93
27958;BME280;15295;42.658;23.374;2022-09-09T02:07:43;94809.09;;;23.31;47.97
27958;BME280;15295;42.658;23.374;2022-09-09T02:13:04;94815.59;;;23.37;48.35
27958;BME280;15295;42.658;23.374;2022-09-09T02:15:46;94818.69;;;23.39;48.49
27958;BME280;15295;42.658;23.374;2022-09-09T02:18:19;94773.88;;;23.10;48.37
27958;BME280;15295;42.658;23.374;2022-09-09T02:20:52;94763.81;;;23.12;48.41
27958;BME280;15295;42.658;23.374;2022-09-09T02:23:19;94769.75;;;23.05;48.62
27958;BME280;15295;42.658;23.374;2022-09-09T02:25:58;94753.38;;;22.98;48.27
27958;BME280;15295;42.658;23.374;2022-09-09T02:28:33;94776.06;;;23.06;48.34
27958;BME280;15295;42.658;23.374;2022-09-09T02:31:03;94793.41;;;23.10;48.25
27958;BME280;15295;42.658;23.374;2022-09-09T02:33:51;94805.78;;;23.18;48.35
27958;BME280;15295;42.658;23.374;2022-09-09T02:36:21;94791.88;;;23.09;48.21
27958;BME280;15295;42.658;23.374;2022-09-09T02:38:49;94805.16;;;23.14;48.78
27958;BME280;15295;42.658;23.374;2022-09-09T02:41:31;94808.41;;;23.12;48.94
27958;BME280;15295;42.658;23.374;2022-09-09T02:44:16;94814.00;;;23.12;48.84
27958;BME280;15295;42.658;23.374;2022-09-09T02:53:06;94830.00;;;23.02;49.48
27958;BME280;15295;42.658;23.374;2022-09-09T02:58:25;94787.69;;;22.71;49.94
27958;BME280;15295;42.658;23.374;2022-09-09T03:00:55;94815.34;;;22.84;50.07
27958;BME280;15295;42.658;23.374;2022-09-09T03:03:24;94781.53;;;22.58;50.35
27958;BME280;15295;42.658;23.374;2022-09-09T03:05:50;94781.72;;;22.64;50.39
27958;BME280;15295;42.658;23.374;2022-09-09T03:08:17;94789.88;;;22.58;50.31
27958;BME280;15295;42.658;23.374;2022-09-09T03:10:46;94821.59;;;22.79;50.54
27958;BME280;15295;42.658;23.374;2022-09-09T03:13:33;94794.56;;;22.61;50.74
27958;BME280;15295;42.658;23.374;2022-09-09T03:16:03;94783.41;;;22.52;51.08
27958;BME280;15295;42.658;23.374;2022-09-09T03:18:30;94801.69;;;22.53;50.98
27958;BME280;15295;42.658;23.374;2022-09-09T03:20:57;94826.69;;;22.71;50.83
27958;BME280;15295;42.658;23.374;2022-09-09T03:23:26;94783.91;;;22.42;50.98
27958;BME280;15295;42.658;23.374;2022-09-09T03:25:55;94787.91;;;22.50;51.22
27958;BME280;15295;42.658;23.374;2022-09-09T03:28:29;94811.56;;;22.63;51.22
27958;BME280;15295;42.658;23.374;2022-09-09T03:31:04;94765.22;;;22.33;51.15
27958;BME280;15295;42.658;23.374;2022-09-09T03:33:32;94782.53;;;22.37;51.15
27958;BME280;15295;42.658;23.374;2022-09-09T03:36:04;94773.88;;;22.35;51.42
27958;BME280;15295;42.658;23.374;2022-09-09T03:38:32;94798.91;;;22.44;51.18
27958;BME280;15295;42.658;23.374;2022-09-09T03:41:04;94789.19;;;22.40;51.29
27958;BME280;15295;42.658;23.374;2022-09-09T03:43:44;94778.53;;;22.29;51.52
27958;BME280;15295;42.658;23.374;2022-09-09T03:46:17;94819.00;;;22.57;51.52
27958;BME280;15295;42.658;23.374;2022-09-09T03:48:43;94815.31;;;22.60;51.63
27958;BME280;15295;42.658;23.374;2022-09-09T03:51:16;94794.91;;;22.45;51.43
27958;BME280;15295;42.658;23.374;2022-09-09T03:53:54;94810.97;;;22.59;51.30
27958;BME280;15295;42.658;23.374;2022-09-09T03:56:28;94814.19;;;22.58;51.43
27958;BME280;15295;42.658;23.374;2022-09-09T03:59:00;94831.38;;;22.65;51.30
27958;BME280;15295;42.658;23.374;2022-09-09T04:01:36;94809.09;;;22.56;51.23
27958;BME280;15295;42.658;23.374;2022-09-09T04:04:22;94796.72;;;22.48;51.61
27958;BME280;15295;42.658;23.374;2022-09-09T04:06:53;94834.91;;;22.75;51.27
27958;BME280;15295;42.658;23.374;2022-09-09T04:09:30;94797.03;;;22.50;51.29
27958;BME280;15295;42.658;23.374;2022-09-09T04:11:57;94835.22;;;22.77;51.21
27958;BME280;15295;42.658;23.374;2022-09-09T04:14:37;94800.72;;;22.56;51.15
27958;BME280;15295;42.658;23.374;2022-09-09T04:17:09;94810.34;;;22.64;51.12
27958;BME280;15295;42.658;23.374;2022-09-09T04:19:37;94810.66;;;22.66;51.33
27958;BME280;15295;42.658;23.374;2022-09-09T04:22:10;94797.00;;;22.68;51.10
27958;BME280;15295;42.658;23.374;2022-09-09T04:24:45;94797.47;;;22.67;50.97
27958;BME280;15295;42.658;23.374;2022-09-09T04:27:13;94817.38;;;22.83;51.00
27958;BME280;15295;42.658;23.374;2022-09-09T04:29:43;94832.53;;;22.91;51.39
27958;BME280;15295;42.658;23.374;2022-09-09T04:32:08;94798.22;;;22.76;51.43
27958;BME280;15295;42.658;23.374;2022-09-09T04:34:36;94791.22;;;22.81;51.35
27958;BME280;15295;42.658;23.374;2022-09-09T04:37:04;94795.69;;;22.87;50.92
27958;BME280;15295;42.658;23.374;2022-09-09T04:39:41;94830.56;;;23.16;50.47
27958;BME280;15295;42.658;23.374;2022-09-09T04:42:29;94816.63;;;23.16;51.09
27958;BME280;15295;42.658;23.374;2022-09-09T04:44:57;94840.69;;;23.37;50.60
27958;BME280;15295;42.658;23.374;2022-09-09T04:47:23;94828.63;;;23.31;50.28
27958;BME280;15295;42.658;23.374;2022-09-09T04:49:51;94826.28;;;23.29;50.29
27958;BME280;15295;42.658;23.374;2022-09-09T04:52:20;94818.69;;;23.30;49.81
27958;BME280;15295;42.658;23.374;2022-09-09T04:54:53;94831.25;;;23.34;50.15
27958;BME280;15295;42.658;23.374;2022-09-09T04:57:20;94809.44;;;23.24;49.95
27958;BME280;15295;42.658;23.374;2022-09-09T05:00:00;94816.69;;;23.39;49.46
27958;BME280;15295;42.658;23.374;2022-09-09T05:02:30;94816.47;;;23.43;48.54
27958;BME280;15295;42.658;23.374;2022-09-09T05:05:01;94809.44;;;23.24;48.51
27958;BME280;15295;42.658;23.374;2022-09-09T05:07:39;94823.50;;;23.29;48.26
27958;BME280;15295;42.658;23.374;2022-09-09T05:10:49;94797.00;;;23.34;48.24
27958;BME280;15295;42.658;23.374;2022-09-09T05:13:58;94771.44;;;23.35;48.84
27958;BME280;15295;42.658;23.374;2022-09-09T05:16:35;94802.94;;;23.74;47.55
27958;BME280;15295;42.658;23.374;2022-09-09T05:19:26;94818.09;;;23.58;46.97
27958;BME280;15295;42.658;23.374;2022-09-09T05:21:54;94819.56;;;23.45;47.61
27958;BME280;15295;42.658;23.374;2022-09-09T05:24:26;94811.25;;;23.36;47.65
27958;BME280;15295;42.658;23.374;2022-09-09T05:26:54;94801.91;;;23.48;47.45
27958;BME280;15295;42.658;23.374;2022-09-09T05:29:25;94781.09;;;23.25;47.40
27958;BME280;15295;42.658;23.374;2022-09-09T05:31:55;94810.19;;;23.57;47.66
27958;BME280;15295;42.658;23.374;2022-09-09T05:34:24;94791.09;;;23.79;47.66
27958;BME280;15295;42.658;23.374;2022-09-09T05:36:57;94764.59;;;23.98;46.69
27958;BME280;15295;42.658;23.374;2022-09-09T05:39:35;94759.03;;;24.27;46.80
27958;BME280;15295;42.658;23.374;2022-09-09T05:42:21;94765.56;;;24.68;45.92
27958;BME280;15295;42.658;23.374;2022-09-09T05:44:51;94816.56;;;25.27;45.14
27958;BME280;15295;42.658;23.374;2022-09-09T05:50:35;94820.72;;;25.86;43.16
27958;BME280;15295;42.658;23.374;2022-09-09T05:53:01;94779.06;;;25.74;42.35
27958;BME280;15295;42.658;23.374;2022-09-09T05:55:49;94806.97;;;25.88;41.41
27958;BME280;15295;42.658;23.374;2022-09-09T05:58:31;94814.13;;;26.10;42.77
27958;BME280;15295;42.658;23.374;2022-09-09T06:01:28;94818.50;;;26.36;41.73
27958;BME280;15295;42.658;23.374;2022-09-09T06:04:13;94816.44;;;26.62;41.02
27958;BME280;15295;42.658;23.374;2022-09-09T06:06:53;94829.25;;;26.69;40.87
27958;BME280;15295;42.658;23.374;2022-09-09T06:09:22;94817.72;;;26.61;41.12
27958;BME280;15295;42.658;23.374;2022-09-09T06:11:52;94801.44;;;26.65;40.46
27958;BME280;15295;42.658;23.374;2022-09-09T06:14:24;94836.41;;;26.96;40.81
27958;BME280;15295;42.658;23.374;2022-09-09T06:17:11;94809.69;;;27.00;40.43
27958;BME280;15295;42.658;23.374;2022-09-09T06:19:41;94830.94;;;27.12;39.66
27958;BME280;15295;42.658;23.374;2022-09-09T06:22:09;94809.00;;;27.11;39.80
27958;BME280;15295;42.658;23.374;2022-09-09T06:24:48;94833.13;;;27.34;39.61
27958;BME280;15295;42.658;23.374;2022-09-09T06:27:21;94828.94;;;27.49;39.04
27958;BME280;15295;42.658;23.374;2022-09-09T06:30:13;94832.34;;;27.65;37.88
27958;BME280;15295;42.658;23.374;2022-09-09T06:32:47;94832.53;;;27.56;38.07
27958;BME280;15295;42.658;23.374;2022-09-09T06:35:17;94794.41;;;27.38;38.37
27958;BME280;15295;42.658;23.374;2022-09-09T06:38:21;94828.63;;;27.95;37.61
27958;BME280;15295;42.658;23.374;2022-09-09T06:40:58;94819.56;;;28.17;36.93
27958;BME280;15295;42.658;23.374;2022-09-09T06:43:35;94801.19;;;28.16;37.23
27958;BME280;15295;42.658;23.374;2022-09-09T06:48:44;94814.59;;;28.65;35.45
27958;BME280;15295;42.658;23.374;2022-09-09T06:51:35;94835.31;;;28.79;34.93
27958;BME280;15295;42.658;23.374;2022-09-09T06:54:20;94837.88;;;28.77;35.63
27958;BME280;15295;42.658;23.374;2022-09-09T06:57:02;94821.69;;;28.55;35.52
27958;BME280;15295;42.658;23.374;2022-09-09T06:59:35;94850.66;;;28.83;35.37
27958;BME280;15295;42.658;23.374;2022-09-09T07:02:03;94841.22;;;28.97;34.67
27958;BME280;15295;42.658;23.374;2022-09-09T07:04:48;94844.78;;;28.81;34.70
27958;BME280;15295;42.658;23.374;2022-09-09T07:07:44;94830.22;;;28.72;35.17
27958;BME280;15295;42.658;23.374;2022-09-09T07:10:31;94802.06;;;28.83;34.34
27958;BME280;15295;42.658;23.374;2022-09-09T07:13:04;94853.00;;;29.35;34.35
27958;BME280;15295;42.658;23.374;2022-09-09T07:15:34;94840.72;;;29.49;33.25
27958;BME280;15295;42.658;23.374;2022-09-09T07:18:19;94815.13;;;29.36;33.60
27958;BME280;15295;42.658;23.374;2022-09-09T07:21:16;94831.75;;;29.50;32.77
27958;BME280;15295;42.658;23.374;2022-09-09T07:23:58;94835.09;;;29.49;32.78
27958;BME280;15295;42.658;23.374;2022-09-09T07:26:49;94815.16;;;29.25;33.54
27958;BME280;15295;42.658;23.374;2022-09-09T07:29:24;94790.81;;;29.38;33.10
27958;BME280;15295;42.658;23.374;2022-09-09T07:32:13;94795.59;;;29.71;32.42
27958;BME280;15295;42.658;23.374;2022-09-09T07:35:04;94837.25;;;30.06;32.49
27958;BME280;15295;42.658;23.374;2022-09-09T07:37:31;94789.91;;;29.88;31.94
27958;BME280;15295;42.658;23.374;2022-09-09T07:39:56;94797.59;;;29.98;32.33
27958;BME280;15295;42.658;23.374;2022-09-09T07:42:22;94798.47;;;30.23;31.67
27958;BME280;15295;42.658;23.374;2022-09-09T07:44:47;94828.00;;;30.63;30.99
27958;BME280;15295;42.658;23.374;2022-09-09T07:47:13;94800.88;;;30.60;30.84
27958;BME280;15295;42.658;23.374;2022-09-09T07:49:38;94822.53;;;30.81;30.72
27958;BME280;15295;42.658;23.374;2022-09-09T07:52:05;94823.03;;;30.80;31.05
27958;BME280;15295;42.658;23.374;2022-09-09T07:54:30;94832.56;;;31.12;30.46
27958;BME280;15295;42.658;23.374;2022-09-09T07:56:57;94805.31;;;31.20;30.03
27958;BME280;15295;42.658;23.374;2022-09-09T07:59:23;94827.94;;;31.44;29.83
27958;BME280;15295;42.658;23.374;2022-09-09T08:01:51;94818.56;;;31.60;29.62
27958;BME280;15295;42.658;23.374;2022-09-09T08:04:22;94823.28;;;32.01;29.34
27958;BME280;15295;42.658;23.374;2022-09-09T08:06:51;94800.75;;;31.89;28.92
27958;BME280;15295;42.658;23.374;2022-09-09T08:09:19;94811.75;;;31.99;28.90
27958;BME280;15295;42.658;23.374;2022-09-09T08:11:47;94807.38;;;31.98;28.66
27958;BME280;15295;42.658;23.374;2022-09-09T08:14:13;94805.53;;;32.00;28.66
27958;BME280;15295;42.658;23.374;2022-09-09T08:16:44;94798.94;;;31.92;28.70
27958;BME280;15295;42.658;23.374;2022-09-09T08:19:11;94838.47;;;31.73;29.14
27958;BME280;15295;42.658;23.374;2022-09-09T08:21:39;94817.13;;;31.48;29.33
27958;BME280;15295;42.658;23.374;2022-09-09T08:24:07;94817.31;;;31.56;29.56
27958;BME280;15295;42.658;23.374;2022-09-09T08:26:39;94804.06;;;31.69;29.35
27958;BME280;15295;42.658;23.374;2022-09-09T08:29:09;94815.81;;;32.03;28.98
27958;BME280;15295;42.658;23.374;2022-09-09T08:31:47;94824.97;;;32.09;28.81
27958;BME280;15295;42.658;23.374;2022-09-09T08:59:51;94799.63;;;32.22;28.88
27958;BME280;15295;42.658;23.374;2022-09-09T09:07:42;94820.28;;;32.73;28.61
27958;BME280;15295;42.658;23.374;2022-09-09T09:12:42;94771.88;;;32.58;28.18
27958;BME280;15295;42.658;23.374;2022-09-09T09:26:05;94781.66;;;32.76;28.06
27958;BME280;15295;42.658;23.374;2022-09-09T09:31:18;94758.41;;;32.83;28.06
27958;BME280;15295;42.658;23.374;2022-09-09T09:36:40;94804.03;;;32.92;28.54
27958;BME280;15295;42.658;23.374;2022-09-09T09:39:54;94811.84;;;33.05;28.52
27958;BME280;15295;42.658;23.374;2022-09-09T13:47:55;94628.38;;;33.29;30.79
27958;BME280;15295;42.658;23.374;2022-09-09T13:50:30;94616.69;;;33.33;30.68
27958;BME280;15295;42.658;23.374;2022-09-09T13:53:03;94588.50;;;33.14;31.12
27958;BME280;15295;42.658;23.374;2022-09-09T13:55:29;94568.06;;;32.77;31.54
27958;BME280;15295;42.658;23.374;2022-09-09T13:58:03;94605.00;;;32.84;31.75
27958;BME280;15295;42.658;23.374;2022-09-09T14:00:43;94597.34;;;32.66;31.82
27958;BME280;15295;42.658;23.374;2022-09-09T14:03:10;94614.47;;;32.74;31.78
27958;BME280;15295;42.658;23.374;2022-09-09T14:05:46;94585.06;;;32.45;32.05
27958;BME280;15295;42.658;23.374;2022-09-09T14:08:24;94584.09;;;32.42;32.07
27958;BME280;15295;42.658;23.374;2022-09-09T14:21:33;94595.63;;;32.44;32.26
27958;BME280;15295;42.658;23.374;2022-09-09T14:48:42;94587.25;;;32.39;32.47
27958;BME280;15295;42.658;23.374;2022-09-09T14:54:33;94559.53;;;32.06;32.83
27958;BME280;15295;42.658;23.374;2022-09-09T14:57:09;94575.41;;;32.09;32.73
27958;BME280;15295;42.658;23.374;2022-09-09T15:00:03;94580.22;;;32.14;33.36
27958;BME280;15295;42.658;23.374;2022-09-09T15:02:40;94567.63;;;31.96;32.72
27958;BME280;15295;42.658;23.374;2022-09-09T15:07:49;94585.81;;;32.01;32.84
27958;BME280;15295;42.658;23.374;2022-09-09T15:10:44;94564.94;;;31.85;32.90
27958;BME280;15295;42.658;23.374;2022-09-09T15:24:13;94597.56;;;31.86;33.26
27958;BME280;15295;42.658;23.374;2022-09-09T15:26:42;94604.06;;;32.00;33.30
27958;BME280;15295;42.658;23.374;2022-09-09T15:53:40;94572.97;;;31.44;34.01
27958;BME280;15295;42.658;23.374;2022-09-09T15:56:33;94550.94;;;31.18;34.32
27958;BME280;15295;42.658;23.374;2022-09-09T15:59:35;94550.81;;;31.29;34.14
27958;BME280;15295;42.658;23.374;2022-09-09T16:02:54;94587.81;;;31.50;34.53
27958;BME280;15295;42.658;23.374;2022-09-09T16:05:58;94586.59;;;31.40;34.25
27958;BME280;15295;42.658;23.374;2022-09-09T17:01:45;94554.66;;;30.05;37.81
27958;BME280;15295;42.658;23.374;2022-09-09T17:33:35;94604.56;;;29.69;39.72
27958;BME280;15295;42.658;23.374;2022-09-09T17:36:32;94549.25;;;29.31;40.06
27958;BME280;15295;42.658;23.374;2022-09-09T17:39:29;94588.75;;;29.61;39.81
27958;BME280;15295;42.658;23.374;2022-09-09T17:42:59;94561.53;;;29.34;40.27
27958;BME280;15295;42.658;23.374;2022-09-09T17:46:22;94606.19;;;29.54;40.54
27958;BME280;15295;42.658;23.374;2022-09-09T17:49:17;94627.94;;;29.59;40.38
27958;BME280;15295;42.658;23.374;2022-09-09T17:55:33;94605.75;;;29.44;41.79
27958;BME280;15295;42.658;23.374;2022-09-09T17:58:12;94582.25;;;29.31;41.04
27958;BME280;15295;42.658;23.374;2022-09-09T18:01:27;94585.59;;;29.29;40.87
27958;BME280;15295;42.658;23.374;2022-09-09T18:47:36;94635.34;;;28.49;40.74
27958;BME280;15295;42.658;23.374;2022-09-09T18:50:06;94683.19;;;28.82;40.80
27958;BME280;15295;42.658;23.374;2022-09-09T19:03:10;94660.16;;;28.40;40.97
27958;BME280;15295;42.658;23.374;2022-09-09T19:05:40;94645.31;;;28.34;41.27
27958;BME280;15295;42.658;23.374;2022-09-09T19:08:16;94668.88;;;28.58;41.31
27958;BME280;15295;42.658;23.374;2022-09-09T19:10:48;94669.13;;;28.60;41.02
27958;BME280;15295;42.658;23.374;2022-09-09T19:13:14;94647.63;;;28.52;41.27
27958;BME280;15295;42.658;23.374;2022-09-09T19:18:09;94642.00;;;28.41;41.25
27958;BME280;15295;42.658;23.374;2022-09-09T19:20:37;94653.00;;;28.55;41.22
27958;BME280;15295;42.658;23.374;2022-09-09T19:23:12;94634.59;;;28.43;41.63
27958;BME280;15295;42.658;23.374;2022-09-09T19:25:47;94654.28;;;28.60;41.33
27958;BME280;15295;42.658;23.374;2022-09-09T19:28:21;94628.47;;;28.39;41.51
27958;BME280;15295;42.658;23.374;2022-09-09T19:30:48;94628.47;;;28.34;41.75
27958;BME280;15295;42.658;23.374;2022-09-09T19:38:44;94633.84;;;28.09;43.25
27958;BME280;15295;42.658;23.374;2022-09-09T19:41:18;94630.00;;;28.23;42.95
27958;BME280;15295;42.658;23.374;2022-09-09T19:43:52;94634.88;;;28.29;43.02
27958;BME280;15295;42.658;23.374;2022-09-09T19:48:58;94617.22;;;28.17;42.71
27958;BME280;15295;42.658;23.374;2022-09-09T19:51:26;94623.38;;;28.10;42.49
27958;BME280;15295;42.658;23.374;2022-09-09T19:54:00;94623.38;;;28.10;42.95
27958;BME280;15295;42.658;23.374;2022-09-09T19:56:32;94598.09;;;27.99;43.07
27958;BME280;15295;42.658;23.374;2022-09-09T19:59:02;94615.19;;;28.01;43.85
27958;BME280;15295;42.658;23.374;2022-09-09T20:01:32;94612.63;;;28.03;44.12
27958;BME280;15295;42.658;23.374;2022-09-09T20:04:01;94608.53;;;27.93;44.31
27958;BME280;15295;42.658;23.374;2022-09-09T20:06:35;94622.31;;;27.96;44.49
27958;BME280;15295;42.658;23.374;2022-09-09T20:09:10;94609.06;;;27.97;43.99
27958;BME280;15295;42.658;23.374;2022-09-09T20:11:38;94615.44;;;27.97;44.24
27958;BME280;15295;42.658;23.374;2022-09-09T20:14:06;94617.22;;;28.00;44.27
27958;BME280;15295;42.658;23.374;2022-09-09T20:16:32;94595.00;;;28.08;44.69
27958;BME280;15295;42.658;23.374;2022-09-09T20:19:00;94598.09;;;28.27;44.06
27958;BME280;15295;42.658;23.374;2022-09-09T20:21:35;94602.66;;;28.30;43.59
27958;BME280;15295;42.658;23.374;2022-09-09T20:24:05;94607.53;;;28.35;43.66
27958;BME280;15295;42.658;23.374;2022-09-09T20:26:33;94605.22;;;28.39;43.41
27958;BME280;15295;42.658;23.374;2022-09-09T20:29:01;94605.47;;;28.41;43.03
27958;BME280;15295;42.658;23.374;2022-09-09T20:31:31;94603.44;;;28.41;42.67
27958;BME280;15295;42.658;23.374;2022-09-09T20:33:57;94590.91;;;28.25;42.54
27958;BME280;15295;42.658;23.374;2022-09-09T20:36:31;94608.81;;;28.28;42.39
27958;BME280;15295;42.658;23.374;2022-09-09T20:39:08;94608.53;;;28.15;42.54
27958;BME280;15295;42.658;23.374;2022-09-09T20:41:36;94609.59;;;28.12;42.86
27958;BME280;15295;42.658;23.374;2022-09-09T20:44:08;94611.38;;;28.09;43.29
27958;BME280;15295;42.658;23.374;2022-09-09T20:46:38;94610.59;;;28.03;43.40
27958;BME280;15295;42.658;23.374;2022-09-09T20:49:06;94614.16;;;27.93;43.95
27958;BME280;15295;42.658;23.374;2022-09-09T20:51:33;94604.69;;;27.90;44.07
27958;BME280;15295;42.658;23.374;2022-09-09T20:54:00;94612.59;;;27.92;43.91
27958;BME280;15295;42.658;23.374;2022-09-09T20:56:29;94617.44;;;27.91;44.15
27958;BME280;15295;42.658;23.374;2022-09-09T20:58:57;94616.94;;;27.87;44.48
27958;BME280;15295;42.658;23.374;2022-09-09T21:01:22;94616.16;;;27.87;44.39
27958;BME280;15295;42.658;23.374;2022-09-09T21:03:49;94620.78;;;27.84;44.43
27958;BME280;15295;42.658;23.374;2022-09-09T21:06:15;94618.97;;;27.81;44.86
27958;BME280;15295;42.658;23.374;2022-09-09T21:08:41;94620.50;;;27.77;45.18
27958;BME280;15295;42.658;23.374;2022-09-09T21:11:08;94621.50;;;27.74;45.13
27958;BME280;15295;42.658;23.374;2022-09-09T21:13:36;94618.94;;;27.70;45.32
27958;BME280;15295;42.658;23.374;2022-09-09T21:16:03;94623.03;;;27.69;45.15
27958;BME280;15295;42.658;23.374;2022-09-09T21:18:33;94613.81;;;27.63;45.23
27958;BME280;15295;42.658;23.374;2022-09-09T21:21:00;94625.81;;;27.64;45.29
27958;BME280;15295;42.658;23.374;2022-09-09T21:23:26;94613.03;;;27.52;45.54
27958;BME280;15295;42.658;23.374;2022-09-09T21:25:52;94620.97;;;27.59;45.65
27958;BME280;15295;42.658;23.374;2022-09-09T21:28:18;94626.81;;;27.55;45.50
27958;BME280;15295;42.658;23.374;2022-09-09T21:30:51;94627.34;;;27.54;45.74
27958;BME280;15295;42.658;23.374;2022-09-09T21:33:19;94623.75;;;27.47;46.12
27958;BME280;15295;42.658;23.374;2022-09-09T21:35:45;94625.28;;;27.48;46.16
27958;BME280;15295;42.658;23.374;2022-09-09T21:38:17;94627.34;;;27.54;45.90
27958;BME280;15295;42.658;23.374;2022-09-09T21:40:43;94617.63;;;27.55;45.56
27958;BME280;15295;42.658;23.374;2022-09-09T21:43:11;94623.50;;;27.57;45.59
27958;BME280;15295;42.658;23.374;2022-09-09T21:45:41;94620.44;;;27.49;45.92
27958;BME280;15295;42.658;23.374;2022-09-09T21:48:14;94608.38;;;27.37;45.72
27958;BME280;15295;42.658;23.374;2022-09-09T21:50:45;94615.56;;;27.38;45.75
27958;BME280;15295;42.658;23.374;2022-09-09T21:53:12;94627.22;;;27.31;46.14
27958;BME280;15295;42.658;23.374;2022-09-09T21:55:41;94625.44;;;27.28;46.22
27958;BME280;15295;42.658;23.374;2022-09-09T21:58:08;94635.38;;;27.29;46.50
27958;BME280;15295;42.658;23.374;2022-09-09T22:00:44;94619.72;;;27.06;46.79
27958;BME280;15295;42.658;23.374;2022-09-09T22:03:12;94611.78;;;26.99;47.12
27958;BME280;15295;42.658;23.374;2022-09-09T22:05:39;94619.22;;;27.02;47.08
27958;BME280;15295;42.658;23.374;2022-09-09T22:08:05;94619.94;;;26.97;47.10
27958;BME280;15295;42.658;23.374;2022-09-09T22:10:30;94605.13;;;26.86;47.37
27958;BME280;15295;42.658;23.374;2022-09-09T22:12:56;94624.75;;;26.86;47.33
27958;BME280;15295;42.658;23.374;2022-09-09T22:15:21;94612.22;;;26.81;47.67
27958;BME280;15295;42.658;23.374;2022-09-09T22:17:47;94612.19;;;26.75;47.96
27958;BME280;15295;42.658;23.374;2022-09-09T22:20:14;94590.94;;;26.63;47.86
27958;BME280;15295;42.658;23.374;2022-09-09T22:22:40;94600.66;;;26.68;47.84
27958;BME280;15295;42.658;23.374;2022-09-09T22:25:06;94606.78;;;26.72;47.87
27958;BME280;15295;42.658;23.374;2022-09-09T22:27:32;94605.75;;;26.69;48.17
27958;BME280;15295;42.658;23.374;2022-09-09T22:30:14;94613.34;;;26.63;48.14
27958;BME280;15295;42.658;23.374;2022-09-09T22:32:40;94599.06;;;26.56;48.16
27958;BME280;15295;42.658;23.374;2022-09-09T22:35:06;94610.28;;;26.56;48.25
27958;BME280;15295;42.658;23.374;2022-09-09T22:37:33;94603.63;;;26.53;48.20
27958;BME280;15295;42.658;23.374;2022-09-09T22:40:01;94605.66;;;26.53;48.47
27958;BME280;15295;42.658;23.374;2022-09-09T22:42:26;94610.47;;;26.52;48.49
27958;BME280;15295;42.658;23.374;2022-09-09T22:44:52;94596.72;;;26.49;48.49
27958;BME280;15295;42.658;23.374;2022-09-09T22:47:17;94602.84;;;26.53;48.47
27958;BME280;15295;42.658;23.374;2022-09-09T22:49:43;94601.53;;;26.48;48.35
27958;BME280;15295;42.658;23.374;2022-09-09T22:52:08;94597.69;;;26.46;48.75
27958;BME280;15295;42.658;23.374;2022-09-09T22:54:40;94597.44;;;26.44;48.93
27958;BME280;15295;42.658;23.374;2022-09-09T22:57:10;94594.09;;;26.40;49.07
27958;BME280;15295;42.658;23.374;2022-09-09T22:59:35;94593.03;;;26.32;48.92
27958;BME280;15295;42.658;23.374;2022-09-09T23:02:01;94602.25;;;26.38;48.92
27958;BME280;15295;42.658;23.374;2022-09-09T23:04:27;94595.66;;;26.41;48.93
27958;BME280;15295;42.658;23.374;2022-09-09T23:06:52;94582.03;;;26.28;48.64